Time;durP1;ratioP1;P1;durP2;ratioP2;P2;SDS_P1;SDS_P2;PMS_P1;PMS_P2;Temp;Humidity;BMP_temperature;BMP_pressure;BME280_temperature;BME280_humidity;BME280_pressure;Samples;Min_cycle;Max_cycle;Signal;HPM_P1;HPM_P2
2021/07/21 00:01:11;;;;;;;10.02;7.13;;;18.60;96.00;;;;;;4970009;28;20051;-79
2021/07/21 00:03:38;;;;;;;10.25;6.80;;;18.60;96.30;;;;;;4961876;28;20485;-79
2021/07/21 00:06:05;;;;;;;11.70;7.32;;;18.60;96.50;;;;;;4971189;28;20046;-79
2021/07/21 00:08:32;;;;;;;11.38;7.40;;;18.60;96.40;;;;;;4971748;28;20046;-79
2021/07/21 00:13:46;;;;;;;13.13;6.95;;;18.50;96.30;;;;;;4968809;28;20555;-80
2021/07/21 00:16:16;;;;;;;11.80;7.10;;;18.50;96.40;;;;;;4956272;28;20067;-79
2021/07/21 00:18:49;;;;;;;10.88;7.13;;;18.40;96.40;;;;;;4967334;28;20166;-79
2021/07/21 00:21:23;;;;;;;15.35;7.20;;;18.40;96.50;;;;;;4971765;28;20061;-79
2021/07/21 00:23:50;;;;;;;10.75;6.90;;;18.30;96.60;;;;;;4971528;28;20043;-79
2021/07/21 00:26:17;;;;;;;11.80;6.95;;;18.20;96.70;;;;;;4971650;28;20511;-79
2021/07/21 00:28:45;;;;;;;10.98;6.95;;;18.20;96.80;;;;;;4974650;28;20070;-79
2021/07/21 00:31:16;;;;;;;11.95;7.13;;;18.10;97.00;;;;;;4973775;28;20047;-79
2021/07/21 00:33:43;;;;;;;10.75;7.50;;;18.10;97.00;;;;;;4974532;28;20051;-79
2021/07/21 00:36:10;;;;;;;12.05;7.35;;;18.10;97.10;;;;;;4974257;28;20043;-79
2021/07/21 00:38:37;;;;;;;11.00;7.10;;;18.00;97.20;;;;;;4974543;28;20133;-78
2021/07/21 00:41:04;;;;;;;10.88;6.50;;;17.90;97.30;;;;;;4974369;28;20054;-78
2021/07/21 00:43:31;;;;;;;12.68;7.63;;;18.00;97.60;;;;;;4973207;28;20471;-78
2021/07/21 00:45:59;;;;;;;11.98;7.70;;;18.00;97.70;;;;;;4974029;28;20055;-78
2021/07/21 00:48:26;;;;;;;11.40;7.05;;;18.00;97.70;;;;;;4974274;28;20126;-78
2021/07/21 00:50:55;;;;;;;11.73;7.10;;;18.00;97.80;;;;;;4974337;28;20074;-79
2021/07/21 00:53:23;;;;;;;11.25;7.28;;;18.10;97.70;;;;;;4974439;28;20047;-78
2021/07/21 00:55:52;;;;;;;10.13;6.72;;;18.10;97.70;;;;;;4974173;28;20125;-79
2021/07/21 00:58:20;;;;;;;12.80;7.00;;;18.10;97.70;;;;;;4974194;28;20126;-79
2021/07/21 01:00:47;;;;;;;10.98;7.20;;;18.10;97.60;;;;;;4973822;28;20150;-79
2021/07/21 01:03:15;;;;;;;12.20;7.25;;;18.10;97.70;;;;;;4974527;28;20085;-78
2021/07/21 01:05:44;;;;;;;11.43;7.53;;;18.10;97.60;;;;;;4974265;28;20086;-80
2021/07/21 01:08:13;;;;;;;10.65;7.05;;;18.10;97.60;;;;;;4974368;28;20116;-80
2021/07/21 01:10:45;;;;;;;11.88;7.43;;;18.10;97.60;;;;;;4974105;28;20053;-79
2021/07/21 01:13:20;;;;;;;11.85;7.30;;;18.10;97.80;;;;;;4961090;28;20047;-79
2021/07/21 01:15:53;;;;;;;12.07;7.38;;;18.00;97.60;;;;;;4971103;28;20506;-79
2021/07/21 01:18:29;;;;;;;10.95;7.53;;;17.90;97.50;;;;;;4973775;28;20512;-79
2021/07/21 01:21:59;;;;;;;11.30;7.65;;;17.80;97.60;;;;;;4974204;28;20129;-79
2021/07/21 01:24:30;;;;;;;10.70;7.10;;;17.80;97.80;;;;;;4964045;28;20118;-78
2021/07/21 01:27:20;;;;;;;10.85;6.30;;;17.70;97.80;;;;;;4974149;28;20057;-78
2021/07/21 01:29:51;;;;;;;12.75;6.90;;;17.60;97.90;;;;;;4966645;28;20121;-80
2021/07/21 01:32:20;;;;;;;11.25;7.10;;;17.50;98.00;;;;;;4974421;28;20131;-79
2021/07/21 01:34:53;;;;;;;10.25;6.70;;;17.40;98.30;;;;;;4974009;28;20057;-79
2021/07/21 01:37:21;;;;;;;10.85;6.78;;;17.40;98.50;;;;;;4974176;28;20130;-78
2021/07/21 01:39:55;;;;;;;12.45;7.35;;;17.40;98.70;;;;;;4972353;28;20129;-80
2021/07/21 01:42:25;;;;;;;10.48;7.13;;;17.40;98.50;;;;;;4973826;28;20130;-79
2021/07/21 01:44:54;;;;;;;11.07;6.90;;;17.40;98.40;;;;;;4973650;28;20138;-80
2021/07/21 01:47:23;;;;;;;11.85;7.47;;;17.30;98.50;;;;;;4973937;28;20063;-80
2021/07/21 01:49:53;;;;;;;11.52;7.80;;;17.20;98.60;;;;;;4973344;28;20097;-80
2021/07/21 01:52:25;;;;;;;11.77;6.97;;;17.20;98.70;;;;;;4973674;28;20121;-79
2021/07/21 01:54:55;;;;;;;11.18;7.55;;;17.20;98.70;;;;;;4974713;28;20078;-80
2021/07/21 01:57:26;;;;;;;10.82;7.63;;;17.10;98.80;;;;;;4977031;28;20082;-80
2021/07/21 01:59:54;;;;;;;12.93;7.15;;;17.00;98.90;;;;;;4976943;28;20142;-79
2021/07/21 02:02:23;;;;;;;12.95;8.30;;;16.90;99.00;;;;;;4977324;28;20058;-79
2021/07/21 02:04:52;;;;;;;16.23;9.00;;;16.80;99.10;;;;;;4977450;28;20050;-78
2021/07/21 02:07:22;;;;;;;12.77;8.30;;;16.70;99.50;;;;;;4974794;28;20061;-78
2021/07/21 02:09:49;;;;;;;11.88;8.07;;;16.70;99.70;;;;;;4974137;28;20576;-80
2021/07/21 02:12:17;;;;;;;11.63;7.85;;;16.70;99.90;;;;;;4976734;28;20130;-81
2021/07/21 02:14:47;;;;;;;12.38;8.23;;;16.60;99.90;;;;;;4977243;28;20162;-80
2021/07/21 02:17:15;;;;;;;10.65;6.85;;;16.60;99.90;;;;;;4980621;28;20141;-80
2021/07/21 02:19:45;;;;;;;12.80;7.53;;;16.60;99.90;;;;;;4980532;28;20125;-79
2021/07/21 02:22:15;;;;;;;14.27;8.25;;;16.70;99.90;;;;;;4958841;28;20085;-79
2021/07/21 02:24:45;;;;;;;14.23;8.55;;;16.70;99.90;;;;;;4966208;28;20043;-79
2021/07/21 02:27:12;;;;;;;13.38;7.72;;;16.70;99.90;;;;;;4985754;28;20128;-79
2021/07/21 02:29:40;;;;;;;11.50;7.53;;;16.70;99.90;;;;;;4989620;28;20074;-79
2021/07/21 02:32:16;;;;;;;10.98;7.10;;;16.70;99.90;;;;;;4989923;28;20102;-79
2021/07/21 02:34:44;;;;;;;11.65;7.63;;;16.80;99.90;;;;;;4989519;28;20085;-79
2021/07/21 02:37:15;;;;;;;12.82;7.40;;;16.80;99.90;;;;;;4987654;28;20050;-79
2021/07/21 02:39:44;;;;;;;12.90;7.45;;;16.90;99.90;;;;;;4986936;28;20106;-80
2021/07/21 02:42:12;;;;;;;11.45;7.68;;;17.00;99.90;;;;;;4987044;28;20047;-80
2021/07/21 02:44:42;;;;;;;12.18;7.20;;;17.00;99.80;;;;;;4987560;28;20204;-80
2021/07/21 02:47:11;;;;;;;13.98;7.78;;;17.00;99.80;;;;;;4987389;28;20090;-79
2021/07/21 02:49:40;;;;;;;12.68;7.85;;;17.00;99.70;;;;;;4987331;28;20050;-78
2021/07/21 02:52:12;;;;;;;11.73;7.35;;;17.00;99.40;;;;;;4986749;28;20046;-78
2021/07/21 02:54:44;;;;;;;13.00;7.63;;;17.00;99.30;;;;;;4977974;28;20125;-80
2021/07/21 02:57:17;;;;;;;12.73;7.88;;;16.90;99.30;;;;;;4978142;28;20046;-80
2021/07/21 02:59:48;;;;;;;11.68;7.05;;;16.80;99.40;;;;;;4987014;28;20545;-80
2021/07/21 03:02:26;;;;;;;11.93;7.32;;;16.70;99.60;;;;;;4970203;28;20046;-79
2021/07/21 03:04:56;;;;;;;10.77;7.05;;;16.70;99.80;;;;;;4975725;28;20117;-79
2021/07/21 03:07:25;;;;;;;13.48;7.72;;;16.60;99.80;;;;;;4973590;28;20055;-78
2021/07/21 03:09:53;;;;;;;11.20;7.32;;;16.60;99.90;;;;;;4971553;28;20053;-79
2021/07/21 03:12:23;;;;;;;12.30;7.63;;;16.60;99.90;;;;;;4974258;28;20441;-79
2021/07/21 03:14:54;;;;;;;11.38;7.60;;;16.60;99.90;;;;;;4973859;28;20134;-79
2021/07/21 03:17:26;;;;;;;14.35;7.93;;;16.60;99.90;;;;;;4973649;28;20079;-79
2021/07/21 03:19:57;;;;;;;13.85;7.93;;;16.60;99.90;;;;;;4973478;28;20089;-79
2021/07/21 03:22:27;;;;;;;13.07;7.63;;;16.50;99.90;;;;;;4973204;28;20581;-79
2021/07/21 03:24:55;;;;;;;10.95;6.88;;;16.50;99.90;;;;;;4972654;28;20081;-77
2021/07/21 03:27:24;;;;;;;11.88;7.00;;;16.60;99.90;;;;;;4973307;28;20489;-79
2021/07/21 03:29:54;;;;;;;12.55;7.72;;;16.60;99.90;;;;;;4972972;28;20138;-80
2021/07/21 03:32:27;;;;;;;12.60;7.40;;;16.70;99.90;;;;;;4973299;28;20049;-79
2021/07/21 03:34:55;;;;;;;11.05;7.28;;;16.70;99.90;;;;;;4973247;28;20133;-79
2021/07/21 03:37:25;;;;;;;13.32;7.60;;;16.70;99.90;;;;;;4973324;28;20051;-79
2021/07/21 03:39:55;;;;;;;11.20;7.55;;;16.70;99.90;;;;;;4966117;28;20410;-79
2021/07/21 03:42:24;;;;;;;10.70;7.07;;;16.70;99.90;;;;;;4973268;28;20054;-79
2021/07/21 03:44:53;;;;;;;11.70;7.43;;;16.70;99.90;;;;;;4972630;28;20054;-79
2021/07/21 03:47:20;;;;;;;12.68;7.10;;;16.60;99.90;;;;;;4973008;28;20076;-79
2021/07/21 03:49:50;;;;;;;12.30;7.45;;;16.60;99.90;;;;;;4972349;28;20389;-79
2021/07/21 03:52:18;;;;;;;11.88;7.28;;;16.60;99.90;;;;;;4969931;28;20488;-78
2021/07/21 03:54:47;;;;;;;11.43;7.30;;;16.60;99.90;;;;;;4969474;28;20130;-78
2021/07/21 03:57:17;;;;;;;11.27;7.10;;;16.60;99.90;;;;;;4957828;28;20475;-79
2021/07/21 03:59:45;;;;;;;11.02;6.90;;;16.60;99.90;;;;;;4972061;28;20539;-79
2021/07/21 04:02:12;;;;;;;11.35;7.00;;;16.50;99.90;;;;;;4973548;28;20069;-78
2021/07/21 04:04:44;;;;;;;10.68;6.43;;;16.50;99.90;;;;;;4974941;28;20074;-78
2021/07/21 04:07:13;;;;;;;11.48;7.20;;;16.50;99.90;;;;;;4974243;28;20130;-78
2021/07/21 04:09:42;;;;;;;11.45;7.32;;;16.50;99.90;;;;;;4974967;28;20137;-79
2021/07/21 04:12:11;;;;;;;12.05;7.30;;;16.50;99.90;;;;;;4974620;28;20476;-79
2021/07/21 04:14:38;;;;;;;12.73;8.27;;;16.50;99.90;;;;;;4974315;28;20126;-78
2021/07/21 04:17:07;;;;;;;11.75;7.22;;;16.50;99.90;;;;;;4974849;28;20145;-78
2021/07/21 04:19:34;;;;;;;10.85;6.50;;;16.50;99.90;;;;;;4974735;28;20404;-79
2021/07/21 04:22:01;;;;;;;11.65;7.20;;;16.50;99.90;;;;;;4973873;28;20038;-77
2021/07/21 04:24:30;;;;;;;12.13;7.55;;;16.50;99.90;;;;;;4974679;28;20134;-78
2021/07/21 04:26:59;;;;;;;12.63;8.00;;;16.50;99.90;;;;;;4974435;28;20050;-78
2021/07/21 04:29:27;;;;;;;12.25;7.40;;;16.40;99.90;;;;;;4974362;28;20122;-78
2021/07/21 04:31:54;;;;;;;11.50;6.95;;;16.40;99.90;;;;;;4973950;28;20125;-78
2021/07/21 04:34:22;;;;;;;10.25;7.18;;;16.40;99.90;;;;;;4961023;28;20450;-79
2021/07/21 04:36:50;;;;;;;12.20;7.43;;;16.40;99.90;;;;;;4955456;28;20047;-79
2021/07/21 04:39:20;;;;;;;14.15;7.75;;;16.40;99.90;;;;;;4955640;29;20134;-78
2021/07/21 04:41:51;;;;;;;11.82;7.72;;;16.40;99.90;;;;;;4955302;29;20086;-76
2021/07/21 04:44:18;;;;;;;10.80;7.55;;;16.40;99.90;;;;;;4954857;29;20082;-77
2021/07/21 04:46:47;;;;;;;11.98;7.43;;;16.30;99.90;;;;;;4955162;29;20412;-78
2021/07/21 04:49:17;;;;;;;10.70;7.43;;;16.30;99.90;;;;;;4955358;29;20085;-78
2021/07/21 04:51:46;;;;;;;11.98;7.50;;;16.20;99.90;;;;;;4962690;28;20073;-78
2021/07/21 04:54:13;;;;;;;12.25;8.20;;;16.10;99.90;;;;;;4970847;28;20058;-77
2021/07/21 04:56:40;;;;;;;12.02;7.60;;;16.10;99.90;;;;;;4955297;29;20057;-79
2021/07/21 04:59:09;;;;;;;14.45;8.43;;;16.10;99.90;;;;;;4954763;29;20549;-78
2021/07/21 05:01:37;;;;;;;12.23;8.07;;;16.10;99.90;;;;;;4955072;29;20138;-78
2021/07/21 05:04:05;;;;;;;13.27;7.60;;;16.00;99.90;;;;;;4955116;29;20043;-80
2021/07/21 05:06:33;;;;;;;12.95;7.60;;;16.10;99.90;;;;;;4955267;28;20553;-78
2021/07/21 05:09:00;;;;;;;12.45;7.32;;;16.10;99.90;;;;;;4955334;29;20054;-78
2021/07/21 05:11:27;;;;;;;11.45;7.75;;;16.20;99.90;;;;;;4955282;29;20153;-78
2021/07/21 05:13:55;;;;;;;13.10;7.78;;;16.30;99.90;;;;;;4954675;29;20048;-78
2021/07/21 05:16:23;;;;;;;13.18;7.70;;;16.30;99.90;;;;;;4955326;29;20055;-78
2021/07/21 05:18:50;;;;;;;12.95;7.60;;;16.40;99.90;;;;;;4954934;29;20142;-78
2021/07/21 05:21:17;;;;;;;12.98;8.27;;;16.40;99.90;;;;;;4962805;28;20047;-77
2021/07/21 05:23:44;;;;;;;13.40;8.32;;;16.50;99.90;;;;;;4974444;28;20133;-78
2021/07/21 05:26:13;;;;;;;14.52;8.43;;;16.50;99.90;;;;;;4974163;28;20053;-78
2021/07/21 05:28:40;;;;;;;13.52;8.43;;;16.50;99.90;;;;;;4973939;28;20481;-78
2021/07/21 05:31:08;;;;;;;12.77;8.30;;;16.50;99.90;;;;;;4976949;28;20138;-78
2021/07/21 05:33:36;;;;;;;13.90;8.15;;;16.50;99.90;;;;;;4977958;28;20057;-78
2021/07/21 05:36:05;;;;;;;12.93;8.48;;;16.50;99.90;;;;;;4977980;28;20560;-78
2021/07/21 05:38:33;;;;;;;13.05;8.05;;;16.50;99.90;;;;;;4976106;28;20085;-78
2021/07/21 05:41:00;;;;;;;15.02;8.65;;;16.50;99.90;;;;;;4966350;28;20511;-78
2021/07/21 05:43:29;;;;;;;12.48;8.35;;;16.50;99.90;;;;;;4977583;28;20141;-79
2021/07/21 05:45:56;;;;;;;13.55;9.05;;;16.60;99.90;;;;;;4977702;28;20089;-78
2021/07/21 05:48:24;;;;;;;12.65;8.15;;;16.60;99.90;;;;;;4977631;28;20485;-78
2021/07/21 05:50:54;;;;;;;12.95;8.52;;;16.60;99.90;;;;;;4977739;28;20453;-79
2021/07/21 05:53:21;;;;;;;13.65;8.13;;;16.70;99.90;;;;;;4977815;28;20047;-78
2021/07/21 05:55:48;;;;;;;12.75;7.90;;;16.70;99.90;;;;;;4968455;28;20061;-78
2021/07/21 05:58:15;;;;;;;13.75;8.25;;;16.80;99.90;;;;;;4958541;29;20142;-77
2021/07/21 06:00:42;;;;;;;11.98;8.25;;;16.80;99.90;;;;;;4958192;29;20073;-79
2021/07/21 06:03:10;;;;;;;12.85;7.93;;;16.90;99.90;;;;;;4958249;29;20137;-78
2021/07/21 06:05:39;;;;;;;16.05;8.88;;;17.00;99.90;;;;;;4958196;29;20051;-78
2021/07/21 06:08:08;;;;;;;13.73;8.75;;;17.10;99.90;;;;;;4959230;29;20055;-78
2021/07/21 06:10:35;;;;;;;14.77;9.10;;;17.10;99.90;;;;;;4967740;28;20130;-78
2021/07/21 06:13:02;;;;;;;13.68;9.15;;;17.10;99.90;;;;;;4977257;28;20129;-78
2021/07/21 06:15:30;;;;;;;13.68;8.77;;;17.10;99.90;;;;;;4977061;28;20481;-78
2021/07/21 06:17:57;;;;;;;16.23;9.70;;;17.10;99.90;;;;;;4977696;28;20074;-78
2021/07/21 06:20:24;;;;;;;16.65;9.43;;;17.20;99.90;;;;;;4977357;28;20133;-77
2021/07/21 06:22:51;;;;;;;15.88;9.18;;;17.20;99.90;;;;;;4976941;28;20047;-78
2021/07/21 06:25:20;;;;;;;12.05;7.57;;;17.20;99.90;;;;;;4968217;28;20133;-79
2021/07/21 06:27:48;;;;;;;13.63;9.15;;;17.30;99.90;;;;;;4957682;29;20142;-78
2021/07/21 06:30:16;;;;;;;14.20;8.75;;;17.30;99.90;;;;;;4957818;29;20504;-78
2021/07/21 06:32:44;;;;;;;13.35;8.57;;;17.40;99.90;;;;;;4958133;29;20083;-78
2021/07/21 06:35:13;;;;;;;14.18;8.90;;;17.50;99.90;;;;;;4963162;29;20048;-76
2021/07/21 06:37:41;;;;;;;12.55;7.97;;;17.50;99.90;;;;;;4967736;29;20512;-74
2021/07/21 06:40:10;;;;;;;12.43;7.93;;;17.60;99.90;;;;;;4975662;28;20081;-74
2021/07/21 06:42:38;;;;;;;12.07;8.13;;;17.70;99.90;;;;;;4987274;28;20453;-75
2021/07/21 06:45:07;;;;;;;12.35;7.90;;;17.80;99.90;;;;;;4987126;28;20077;-75
2021/07/21 06:47:35;;;;;;;12.43;8.07;;;18.00;99.90;;;;;;4986718;28;20130;-75
2021/07/21 06:50:02;;;;;;;14.05;8.48;;;18.10;99.90;;;;;;4981559;28;20043;-74
2021/07/21 06:52:29;;;;;;;11.77;7.93;;;18.20;99.60;;;;;;4977335;28;20141;-73
2021/07/21 06:54:57;;;;;;;12.55;7.95;;;18.30;99.80;;;;;;4976297;28;20146;-74
2021/07/21 06:57:24;;;;;;;12.13;7.25;;;18.30;99.20;;;;;;4972624;28;20055;-77
2021/07/21 06:59:52;;;;;;;13.52;8.27;;;18.40;99.10;;;;;;4957078;29;20577;-74
2021/07/21 07:02:20;;;;;;;13.05;7.75;;;18.50;98.90;;;;;;4957009;29;20134;-76
2021/07/21 07:04:47;;;;;;;13.18;8.13;;;18.60;98.80;;;;;;4956937;29;20053;-73
2021/07/21 07:07:14;;;;;;;14.68;8.57;;;18.60;98.50;;;;;;4956531;29;20055;-75
2021/07/21 07:09:41;;;;;;;12.20;7.97;;;18.70;98.20;;;;;;4956655;28;20051;-75
2021/07/21 07:12:08;;;;;;;13.93;9.07;;;18.70;98.10;;;;;;4962269;28;20565;-76
2021/07/21 07:14:36;;;;;;;13.75;9.68;;;18.70;98.00;;;;;;4956877;29;20090;-77
2021/07/21 07:17:04;;;;;;;13.43;8.25;;;18.70;97.90;;;;;;4957643;28;20477;-74
2021/07/21 07:19:31;;;;;;;12.40;8.07;;;18.70;98.30;;;;;;4956535;29;20499;-76
2021/07/21 07:22:00;;;;;;;15.13;7.63;;;18.70;98.20;;;;;;4956181;29;20142;-75
2021/07/21 07:24:27;;;;;;;12.93;8.45;;;18.90;98.30;;;;;;4956603;29;20055;-74
2021/07/21 07:26:54;;;;;;;12.13;7.57;;;18.90;98.00;;;;;;4956557;29;20047;-76
2021/07/21 07:29:21;;;;;;;13.13;7.53;;;19.00;98.00;;;;;;4956652;29;20134;-76
2021/07/21 07:31:48;;;;;;;12.50;8.40;;;19.00;97.80;;;;;;4964285;28;20146;-75
2021/07/21 07:34:17;;;;;;;12.65;7.82;;;19.10;97.70;;;;;;4975613;28;20129;-76
2021/07/21 07:36:44;;;;;;;13.23;8.57;;;19.20;97.30;;;;;;4975618;28;20477;-76
2021/07/21 07:39:11;;;;;;;12.23;7.43;;;19.30;97.00;;;;;;4975460;28;20067;-75
2021/07/21 07:41:39;;;;;;;12.05;7.15;;;19.30;97.00;;;;;;4975759;28;20046;-75
2021/07/21 07:44:08;;;;;;;14.10;7.82;;;19.30;97.00;;;;;;4975173;28;20050;-75
2021/07/21 07:46:36;;;;;;;12.27;7.78;;;19.40;96.90;;;;;;4974112;28;20053;-74
2021/07/21 07:49:04;;;;;;;16.65;9.77;;;19.50;96.90;;;;;;4974880;28;20499;-76
2021/07/21 07:51:33;;;;;;;13.20;8.32;;;19.50;96.80;;;;;;4977174;28;20055;-77
2021/07/21 07:54:02;;;;;;;13.25;7.82;;;19.60;96.70;;;;;;4976682;28;20055;-74
2021/07/21 07:56:30;;;;;;;12.75;8.70;;;19.70;96.40;;;;;;4983492;28;20046;-75
2021/07/21 07:58:57;;;;;;;13.20;9.00;;;19.70;96.00;;;;;;4985326;28;20070;-76
2021/07/21 08:01:24;;;;;;;14.48;8.73;;;19.70;95.90;;;;;;4982907;28;20397;-76
2021/07/21 08:03:51;;;;;;;15.98;9.23;;;19.70;95.60;;;;;;4980922;28;20125;-75
2021/07/21 08:06:18;;;;;;;13.38;8.13;;;19.80;95.60;;;;;;4975476;28;20086;-76
2021/07/21 08:08:47;;;;;;;11.45;7.50;;;19.80;95.80;;;;;;4974893;28;20054;-75
2021/07/21 08:11:14;;;;;;;11.50;7.22;;;19.80;96.10;;;;;;4974831;28;20503;-75
2021/07/21 08:13:41;;;;;;;15.60;8.98;;;19.90;96.20;;;;;;4975110;28;20141;-75
2021/07/21 08:16:09;;;;;;;14.23;8.38;;;20.00;95.80;;;;;;4973127;28;20143;-74
2021/07/21 08:18:36;;;;;;;12.48;7.63;;;20.00;95.80;;;;;;4974792;28;20046;-75
2021/07/21 08:21:05;;;;;;;14.38;8.85;;;20.10;95.80;;;;;;4973296;28;20053;-76
2021/07/21 08:23:32;;;;;;;12.10;7.60;;;20.10;95.60;;;;;;4962813;28;20130;-75
2021/07/21 08:26:00;;;;;;;14.45;8.25;;;20.20;95.80;;;;;;4955557;29;20417;-75
2021/07/21 08:28:28;;;;;;;10.75;6.82;;;20.20;95.40;;;;;;4955568;29;20051;-75
2021/07/21 08:30:55;;;;;;;10.52;7.10;;;20.30;95.30;;;;;;4955043;29;20073;-74
2021/07/21 08:33:22;;;;;;;11.27;6.70;;;20.30;95.20;;;;;;4955289;29;20556;-75
2021/07/21 08:35:49;;;;;;;13.63;7.10;;;20.40;95.20;;;;;;4956060;28;20047;-76
2021/07/21 08:38:16;;;;;;;9.68;6.28;;;20.40;95.20;;;;;;4955366;29;20069;-75
2021/07/21 08:40:43;;;;;;;10.30;6.95;;;20.50;95.20;;;;;;4955225;29;20054;-74
2021/07/21 08:43:12;;;;;;;12.40;7.85;;;20.60;94.90;;;;;;4965716;28;20101;-76
2021/07/21 08:45:39;;;;;;;11.25;6.90;;;20.60;94.60;;;;;;4974265;28;20125;-75
2021/07/21 08:48:06;;;;;;;12.38;7.90;;;20.70;94.60;;;;;;4974387;28;20134;-75
2021/07/21 08:50:33;;;;;;;11.20;6.72;;;20.70;94.50;;;;;;4974707;28;20133;-74
2021/07/21 08:53:02;;;;;;;12.05;6.88;;;20.80;94.30;;;;;;4974552;28;20051;-76
2021/07/21 08:55:30;;;;;;;11.15;6.75;;;20.90;94.00;;;;;;4974376;28;20076;-74
2021/07/21 08:57:57;;;;;;;11.02;6.70;;;20.90;93.80;;;;;;4974069;28;20061;-73
2021/07/21 09:00:25;;;;;;;10.77;6.45;;;21.00;93.70;;;;;;4974297;28;20050;-76
2021/07/21 09:02:53;;;;;;;10.40;5.50;;;21.10;93.60;;;;;;4974709;28;20053;-76
2021/07/21 09:05:20;;;;;;;10.45;6.63;;;21.20;93.80;;;;;;4975817;28;20409;-75
2021/07/21 09:07:48;;;;;;;9.23;6.20;;;21.30;93.60;;;;;;4977424;28;20050;-76
2021/07/21 09:10:17;;;;;;;15.65;9.60;;;21.40;93.40;;;;;;4978298;28;20050;-75
2021/07/21 09:12:47;;;;;;;11.70;7.90;;;21.50;93.10;;;;;;4973359;28;20494;-76
2021/07/21 09:15:17;;;;;;;11.45;7.28;;;21.60;93.10;;;;;;4958719;29;20126;-76
2021/07/21 09:18:06;;;;;;;11.13;6.93;;;21.60;92.20;;;;;;4959036;28;20138;-75
2021/07/21 09:20:35;;;;;;;9.75;6.43;;;21.60;92.20;;;;;;4958820;28;20496;-74
2021/07/21 09:23:02;;;;;;;10.60;6.57;;;21.60;92.40;;;;;;4963288;28;20125;-79
2021/07/21 09:25:32;;;;;;;9.18;6.50;;;21.70;91.90;;;;;;4975312;28;20065;-77
2021/07/21 09:28:03;;;;;;;9.73;6.88;;;21.80;91.80;;;;;;4975362;28;20058;-79
2021/07/21 09:30:33;;;;;;;8.95;6.00;;;21.80;91.30;;;;;;4975172;28;20435;-76
2021/07/21 09:33:04;;;;;;;9.32;5.30;;;21.70;91.60;;;;;;4975699;28;20121;-78
2021/07/21 09:35:34;;;;;;;9.48;6.07;;;21.80;91.70;;;;;;4973676;28;20133;-78
2021/07/21 09:38:07;;;;;;;9.00;6.10;;;21.90;91.60;;;;;;4975029;28;20130;-77
2021/07/21 09:40:36;;;;;;;11.13;6.57;;;22.00;91.60;;;;;;4975156;28;20137;-77
2021/07/21 09:43:11;;;;;;;10.68;6.28;;;22.00;91.30;;;;;;4973604;28;20047;-75
2021/07/21 09:45:39;;;;;;;10.57;6.75;;;22.10;91.00;;;;;;4975059;28;20470;-76
2021/07/21 09:48:07;;;;;;;10.63;6.30;;;22.10;90.30;;;;;;4974392;28;20477;-76
2021/07/21 09:50:36;;;;;;;9.73;6.53;;;22.10;90.00;;;;;;4974864;28;20497;-78
2021/07/21 09:53:10;;;;;;;10.48;6.10;;;22.10;89.90;;;;;;4975140;28;20138;-77
2021/07/21 09:55:38;;;;;;;8.95;5.47;;;22.10;90.20;;;;;;4974971;28;20047;-77
2021/07/21 09:58:08;;;;;;;8.90;5.43;;;22.20;90.20;;;;;;4974920;28;20057;-76
2021/07/21 10:00:38;;;;;;;8.32;5.55;;;22.30;90.30;;;;;;4975090;28;20053;-77
2021/07/21 10:03:16;;;;;;;8.20;5.22;;;22.40;90.20;;;;;;4972433;28;20126;-78
2021/07/21 10:06:09;;;;;;;7.47;4.97;;;22.50;90.20;;;;;;4974851;28;20404;-76
2021/07/21 10:08:41;;;;;;;10.25;5.85;;;22.50;90.00;;;;;;4974681;28;20057;-78
2021/07/21 10:11:25;;;;;;;9.95;5.60;;;22.50;89.40;;;;;;4974921;28;20153;-79
2021/07/21 10:13:55;;;;;;;8.68;5.22;;;22.50;88.70;;;;;;4974780;28;20709;-78
2021/07/21 10:16:40;;;;;;;8.45;5.32;;;22.50;89.20;;;;;;4972190;28;20078;-78
2021/07/21 10:19:12;;;;;;;7.82;5.00;;;22.60;89.30;;;;;;4974209;28;20055;-77
2021/07/21 10:21:42;;;;;;;7.80;5.07;;;22.60;89.40;;;;;;4974557;28;20137;-77
2021/07/21 10:24:11;;;;;;;7.60;5.00;;;22.60;89.20;;;;;;4972970;28;20047;-80
2021/07/21 10:26:40;;;;;;;9.00;6.10;;;22.70;88.90;;;;;;4955969;28;20129;-78
2021/07/21 10:29:08;;;;;;;9.57;6.28;;;22.70;87.40;;;;;;4954603;29;20394;-78
2021/07/21 10:31:38;;;;;;;8.32;5.38;;;22.70;86.40;;;;;;4954755;28;20126;-79
2021/07/21 10:34:08;;;;;;;8.95;5.55;;;22.80;86.50;;;;;;4954941;29;20058;-77
2021/07/21 10:36:37;;;;;;;8.68;5.47;;;22.80;86.40;;;;;;4954706;29;20049;-77
2021/07/21 10:39:09;;;;;;;8.55;5.53;;;22.80;86.50;;;;;;4954626;29;20057;-78
2021/07/21 10:41:37;;;;;;;7.40;4.72;;;22.90;86.50;;;;;;4954273;29;20058;-78
2021/07/21 10:44:04;;;;;;;9.50;6.32;;;23.00;86.60;;;;;;4955715;28;20129;-78
2021/07/21 10:46:38;;;;;;;7.78;5.20;;;23.10;85.60;;;;;;4955214;29;20047;-78
2021/07/21 10:49:34;;;;;;;7.68;5.05;;;23.10;84.80;;;;;;4955137;29;20053;-78
2021/07/21 10:52:52;;;;;;;8.18;5.22;;;23.10;84.90;;;;;;4973933;28;20141;-76
2021/07/21 10:55:28;;;;;;;8.48;5.45;;;23.20;84.10;;;;;;4973450;28;20138;-77
2021/07/21 11:00:56;;;;;;;8.77;5.82;;;23.20;83.00;;;;;;4973550;28;20126;-76
2021/07/21 11:03:28;;;;;;;8.32;5.40;;;23.20;82.10;;;;;;4973778;28;20129;-78
2021/07/21 11:06:02;;;;;;;7.80;4.63;;;23.20;82.70;;;;;;4973444;28;20563;-78
2021/07/21 11:08:31;;;;;;;8.65;5.45;;;23.30;82.10;;;;;;4972941;28;20134;-76
2021/07/21 11:11:10;;;;;;;9.35;6.25;;;23.30;81.70;;;;;;4973370;28;20124;-78
2021/07/21 11:13:40;;;;;;;9.00;6.50;;;23.40;80.20;;;;;;4970087;28;20046;-78
2021/07/21 11:16:41;;;;;;;10.75;6.47;;;23.40;78.90;;;;;;4954205;28;20569;-78
2021/07/21 11:19:35;;;;;;;10.73;6.90;;;23.40;77.80;;;;;;4972344;28;20049;-78
2021/07/21 11:22:08;;;;;;;7.72;5.03;;;23.40;78.50;;;;;;4973100;28;20046;-78
2021/07/21 11:25:19;;;;;;;7.60;4.80;;;23.40;79.60;;;;;;4973365;28;20047;-77
2021/07/21 11:27:51;;;;;;;7.03;4.50;;;23.50;80.60;;;;;;4911022;29;20461;-76
2021/07/21 11:30:41;;;;;;;6.93;4.53;;;;;;;;;;4961120;28;20047;-77
2021/07/21 11:34:01;;;;;;;6.70;4.45;;;23.80;80.10;;;;;;4969017;28;20052;-78
2021/07/21 11:36:49;;;;;;;8.05;5.10;;;23.90;80.50;;;;;;4972771;28;20047;-76
2021/07/21 11:39:44;;;;;;;9.32;6.20;;;24.10;79.70;;;;;;4973036;28;20050;-77
2021/07/21 11:42:33;;;;;;;8.18;5.50;;;24.20;77.00;;;;;;4969302;28;20106;-77
2021/07/21 11:45:18;;;;;;;11.20;6.78;;;24.30;77.00;;;;;;4972247;28;20055;-78
2021/07/21 11:47:49;;;;;;;9.73;6.80;;;24.40;76.20;;;;;;4972423;28;20504;-78
2021/07/21 11:50:20;;;;;;;9.35;6.18;;;24.40;74.40;;;;;;4972495;28;20458;-77
2021/07/21 11:52:51;;;;;;;7.88;5.95;;;24.40;74.10;;;;;;4969281;28;20047;-77
2021/07/21 11:55:23;;;;;;;11.48;7.05;;;24.50;74.50;;;;;;4972705;28;20053;-77
2021/07/21 11:57:51;;;;;;;8.25;5.65;;;24.60;74.10;;;;;;4972909;28;20046;-77
2021/07/21 12:00:20;;;;;;;9.93;6.40;;;24.60;74.70;;;;;;4964759;28;20529;-78
2021/07/21 12:02:48;;;;;;;9.00;6.03;;;24.70;74.60;;;;;;4953028;29;20054;-77
2021/07/21 12:05:15;;;;;;;7.95;5.50;;;24.80;74.10;;;;;;4959429;28;20073;-77
2021/07/21 12:07:46;;;;;;;10.18;6.40;;;24.80;73.40;;;;;;4953504;28;20134;-77
2021/07/21 12:10:16;;;;;;;10.73;7.70;;;24.90;73.10;;;;;;4963709;28;20105;-79
2021/07/21 12:12:46;;;;;;;9.63;6.60;;;25.00;72.50;;;;;;4969297;28;20125;-76
2021/07/21 12:15:18;;;;;;;9.88;6.50;;;25.00;72.60;;;;;;4972255;28;20141;-78
2021/07/21 12:17:45;;;;;;;7.72;5.28;;;25.10;73.00;;;;;;4972321;28;20053;-78
2021/07/21 12:20:15;;;;;;;9.02;6.15;;;25.20;74.10;;;;;;4967834;28;20051;-78
2021/07/21 12:22:45;;;;;;;10.07;6.22;;;25.30;72.40;;;;;;4953787;28;20094;-77
2021/07/21 12:25:14;;;;;;;8.93;6.40;;;25.30;71.30;;;;;;4952896;28;20130;-76
2021/07/21 12:27:45;;;;;;;10.55;7.07;;;25.40;70.40;;;;;;4953355;28;20055;-77
2021/07/21 12:30:17;;;;;;;10.85;7.68;;;25.40;70.10;;;;;;4964657;28;20058;-78
2021/07/21 12:32:46;;;;;;;10.25;6.45;;;25.40;70.60;;;;;;4962825;28;20051;-77
2021/07/21 12:35:15;;;;;;;12.23;7.63;;;25.40;70.90;;;;;;4950980;28;20043;-77
2021/07/21 12:37:45;;;;;;;11.20;7.57;;;25.50;70.40;;;;;;4951050;28;20079;-78
2021/07/21 12:40:15;;;;;;;10.65;7.30;;;25.60;69.80;;;;;;4968048;28;20118;-82
2021/07/21 12:42:44;;;;;;;9.57;6.85;;;25.60;69.80;;;;;;4969265;28;20046;-79
2021/07/21 12:45:14;;;;;;;8.60;5.97;;;25.60;69.50;;;;;;4969184;28;20061;-79
2021/07/21 12:47:44;;;;;;;8.48;5.78;;;25.70;70.10;;;;;;4969686;28;20063;-81
2021/07/21 12:50:15;;;;;;;8.32;6.20;;;25.90;70.50;;;;;;4962739;28;20063;-80
2021/07/21 12:52:45;;;;;;;8.27;5.90;;;26.00;70.20;;;;;;4968403;28;20046;-79
2021/07/21 12:55:15;;;;;;;7.80;5.43;;;26.10;70.10;;;;;;4969668;28;20337;-81
2021/07/21 12:57:46;;;;;;;9.95;6.13;;;26.20;70.20;;;;;;4950594;28;20047;-78
2021/07/21 13:00:18;;;;;;;9.35;6.00;;;26.30;69.80;;;;;;4952091;28;20059;-79